Time;durP1;ratioP1;P1;durP2;ratioP2;P2;SDS_P1;SDS_P2;PMS_P1;PMS_P2;Temp;Humidity;BMP_temperature;BMP_pressure;BME280_temperature;BME280_humidity;BME280_pressure;Samples;Min_cycle;Max_cycle;Signal;HPM_P1;HPM_P2
2022/03/27 00:01:13;;;;;;;106.63;47.20;;;;;;;;;;5049070;28;20076;-82
2022/03/27 00:03:41;;;;;;;105.55;46.10;;;;;;;;;;5051287;28;20750;-81
2022/03/27 00:06:08;;;;;;;88.60;36.70;;;;;;;;;;5044884;28;20053;-82
2022/03/27 00:08:39;;;;;;;68.65;31.40;;;;;;;;;;5045415;28;20047;-82
2022/03/27 00:11:24;;;;;;;62.25;28.30;;;;;;;;;;5049416;28;20072;-82
2022/03/27 00:13:51;;;;;;;;;;;;;;;;;;5049326;28;20076;-82
2022/03/27 00:16:18;;;;;;;40.00;19.35;;;;;;;;;;5049519;28;19925;-82
2022/03/27 00:18:46;;;;;;;39.08;19.65;;;;;;;;;;5049075;28;20061;-82
2022/03/27 00:21:13;;;;;;;53.10;24.65;;;;;;;;;;5049526;28;20156;-83
2022/03/27 00:23:41;;;;;;;43.78;23.83;;;;;;;;;;5049592;28;20443;-82
2022/03/27 00:26:08;;;;;;;45.92;23.95;;;;;;;;;;5049278;28;20114;-82
2022/03/27 00:28:35;;;;;;;48.90;23.15;;;;;;;;;;5049785;28;20103;-82
2022/03/27 00:31:04;;;;;;;50.95;23.67;;;;;;;;;;5049023;28;20152;-83
2022/03/27 00:33:32;;;;;;;47.85;21.83;;;;;;;;;;5044803;28;20132;-82
2022/03/27 00:36:01;;;;;;;53.17;24.90;;;;;;;;;;5048379;28;20041;-82
2022/03/27 00:38:29;;;;;;;50.45;25.23;;;;;;;;;;5049747;28;20045;-82
2022/03/27 00:40:57;;;;;;;57.65;24.85;;;;;;;;;;5046047;28;20077;-82
2022/03/27 00:43:28;;;;;;;58.00;25.27;;;;;;;;;;5046887;28;20052;-83
2022/03/27 00:45:56;;;;;;;58.33;27.17;;;;;;;;;;5046147;28;20487;-83
2022/03/27 00:48:23;;;;;;;51.70;25.83;;;;;;;;;;5047443;28;20056;-82
2022/03/27 00:50:51;;;;;;;61.75;27.88;;;;;;;;;;5049004;28;20148;-82
2022/03/27 00:53:19;;;;;;;45.58;23.73;;;;;;;;;;5046730;28;20079;-82
2022/03/27 00:55:46;;;;;;;43.47;21.42;;;;;;;;;;5041672;28;20139;-82
2022/03/27 00:58:14;;;;;;;34.20;18.55;;;;;;;;;;5037151;28;20041;-82
2022/03/27 01:00:43;;;;;;;37.97;18.73;;;;;;;;;;5036594;28;20077;-82
2022/03/27 01:03:23;;;;;;;41.33;18.42;;;;;;;;;;5045105;28;20119;-82
2022/03/27 01:05:52;;;;;;;34.92;18.23;;;;;;;;;;5045042;28;20375;-82
2022/03/27 01:11:11;;;;;;;37.30;19.23;;;;;;;;;;5047798;28;20072;-82
2022/03/27 01:13:40;;;;;;;38.45;19.25;;;;;;;;;;5047189;28;20135;-82
2022/03/27 01:16:12;;;;;;;38.60;19.52;;;;;;;;;;5047337;28;20045;-82
2022/03/27 01:18:39;;;;;;;42.90;21.13;;;;;;;;;;5046082;28;20049;-82
2022/03/27 01:21:08;;;;;;;49.50;20.73;;;;;;;;;;5043800;28;20049;-82
2022/03/27 01:23:35;;;;;;;42.47;20.85;;;;;;;;;;5047450;28;20050;-82
2022/03/27 01:26:03;;;;;;;45.25;21.48;;;;;;;;;;5049195;28;20118;-83
2022/03/27 01:28:30;;;;;;;50.28;24.45;;;;;;;;;;5052828;28;20139;-82
2022/03/27 01:30:57;;;;;;;51.15;21.55;;;;;;;;;;5048519;28;20094;-83
2022/03/27 01:33:25;;;;;;;54.28;22.80;;;;;;;;;;5048054;28;20083;-84
2022/03/27 01:36:09;;;;;;;58.15;23.88;;;;;;;;;;5049026;28;20163;-84
2022/03/27 01:38:37;;;;;;;64.25;26.20;;;;;;;;;;5049529;28;20060;-84
2022/03/27 01:41:04;;;;;;;64.25;27.10;;;;;;;;;;5050425;28;20077;-83
2022/03/27 01:43:32;;;;;;;62.03;27.50;;;;;;;;;;5048589;28;20129;-83
2022/03/27 01:45:59;;;;;;;82.07;30.75;;;;;;;;;;5046250;28;20067;-83
2022/03/27 01:48:26;;;;;;;72.38;27.23;;;;;;;;;;5046381;28;20068;-83
2022/03/27 01:51:00;;;;;;;64.53;27.00;;;;;;;;;;5052449;28;20064;-83
2022/03/27 01:53:27;;;;;;;59.95;24.77;;;;;;;;;;5045480;28;20084;-83
2022/03/27 01:55:55;;;;;;;63.20;26.73;;;;;;;;;;5047085;28;20045;-83
2022/03/27 01:58:24;;;;;;;55.55;24.73;;;;;;;;;;5047544;28;20185;-83
2022/03/27 02:00:54;;;;;;;58.65;25.95;;;;;;;;;;5048299;28;20095;-83
2022/03/27 02:03:22;;;;;;;58.65;26.88;;;;;;;;;;5047370;28;20049;-82
2022/03/27 02:05:50;;;;;;;62.30;26.30;;;;;;;;;;5045454;28;20049;-83
2022/03/27 02:08:17;;;;;;;55.03;24.10;;;;;;;;;;5048675;28;20077;-83
2022/03/27 02:10:56;;;;;;;70.93;25.48;;;;;;;;;;5062806;28;20091;-83
2022/03/27 02:13:23;;;;;;;61.97;25.73;;;;;;;;;;5049003;28;20493;-83
2022/03/27 02:15:50;;;;;;;61.58;27.05;;;;;;;;;;5047736;28;20041;-83
2022/03/27 02:18:18;;;;;;;70.95;27.95;;;;;;;;;;5062269;28;20139;-83
2022/03/27 02:20:45;;;;;;;65.50;30.65;;;;;;;;;;5046918;28;20079;-84
2022/03/27 02:23:17;;;;;;;76.82;27.55;;;;;;;;;;5047490;28;20192;-83
2022/03/27 02:25:47;;;;;;;55.55;27.20;;;;;;;;;;5045916;28;20048;-83
2022/03/27 02:28:15;;;;;;;62.83;27.70;;;;;;;;;;5047454;28;20285;-83
2022/03/27 02:30:44;;;;;;;74.43;27.08;;;;;;;;;;5046357;28;20387;-83
2022/03/27 02:33:11;;;;;;;76.07;26.52;;;;;;;;;;5046432;28;20044;-83
2022/03/27 02:35:39;;;;;;;64.72;25.60;;;;;;;;;;5048610;28;20132;-82
2022/03/27 02:38:07;;;;;;;61.28;25.75;;;;;;;;;;5048290;28;20049;-82
2022/03/27 02:40:41;;;;;;;70.57;27.25;;;;;;;;;;5048028;28;20103;-83
2022/03/27 02:43:12;;;;;;;;;;;;;;;;;;5047197;28;20514;-82
2022/03/27 02:45:40;;;;;;;77.45;26.92;;;;;;;;;;5046250;28;19924;-82
2022/03/27 02:48:07;;;;;;;94.60;28.48;;;;;;;;;;5043312;28;20064;-83
2022/03/27 02:50:37;;;;;;;139.85;28.77;;;;;;;;;;5044561;28;20068;-83
2022/03/27 02:53:04;;;;;;;147.00;31.15;;;;;;;;;;5046268;28;20142;-83
2022/03/27 02:55:31;;;;;;;184.13;31.70;;;;;;;;;;5048358;22;20156;-83
2022/03/27 02:57:59;;;;;;;186.38;31.40;;;;;;;;;;5036496;28;20109;-83
2022/03/27 03:00:26;;;;;;;163.15;27.00;;;;;;;;;;5036961;28;20075;-83
2022/03/27 03:05:43;;;;;;;57.42;22.98;;;;;;;;;;5001697;28;20715;-83
2022/03/27 03:08:11;;;;;;;67.18;21.42;;;;;;;;;;5009818;28;20054;-83
2022/03/27 03:10:41;;;;;;;52.53;20.30;;;;;;;;;;5008834;28;20054;-82
2022/03/27 03:13:08;;;;;;;47.08;19.77;;;;;;;;;;5009589;28;20133;-82
2022/03/27 03:15:37;;;;;;;121.60;19.40;;;;;;;;;;5009693;28;20824;-82
2022/03/27 03:18:06;;;;;;;181.57;20.40;;;;;;;;;;5012865;28;20046;-83
2022/03/27 03:20:34;;;;;;;166.68;21.58;;;;;;;;;;5012027;28;20100;-82
2022/03/27 03:23:06;;;;;;;72.70;20.42;;;;;;;;;;5020870;28;20056;-83
2022/03/27 03:25:34;;;;;;;46.35;19.98;;;;;;;;;;5028355;28;20088;-81
2022/03/27 03:28:22;;;;;;;54.10;19.67;;;;;;;;;;5008943;28;20560;-84
2022/03/27 03:30:49;;;;;;;88.38;20.65;;;;;;;;;;5012199;28;20141;-82
2022/03/27 03:33:41;;;;;;;102.78;19.17;;;;;;;;;;5031116;28;20082;-81
2022/03/27 03:36:08;;;;;;;57.00;21.25;;;;;;;;;;5006300;28;20759;-81
2022/03/27 03:38:35;;;;;;;72.82;19.75;;;;;;;;;;5010614;28;22118;-80
2022/03/27 03:41:03;;;;;;;64.10;20.42;;;;;;;;;;5024983;28;20054;-80
2022/03/27 03:43:30;;;;;;;60.60;22.60;;;;;;;;;;5009901;28;20069;-78
2022/03/27 03:45:57;;;;;;;68.57;22.33;;;;;;;;;;5011057;28;20073;-80
2022/03/27 03:48:25;;;;;;;48.30;21.13;;;;;;;;;;5012465;28;20054;-81
2022/03/27 03:50:58;;;;;;;60.20;23.38;;;;;;;;;;5009180;28;20551;-81
2022/03/27 03:53:27;;;;;;;59.47;25.58;;;;;;;;;;5007286;28;20853;-82
2022/03/27 03:55:55;;;;;;;50.47;22.27;;;;;;;;;;5008405;28;20050;-82
2022/03/27 03:58:22;;;;;;;59.78;22.33;;;;;;;;;;5024876;28;20544;-82
2022/03/27 04:00:50;;;;;;;88.97;26.95;;;;;;;;;;5026268;28;20041;-82
2022/03/27 04:03:23;;;;;;;71.40;28.20;;;;;;;;;;5018126;28;20048;-81
2022/03/27 04:05:52;;;;;;;74.63;29.33;;;;;;;;;;5025762;28;20053;-82
2022/03/27 04:08:20;;;;;;;78.60;28.98;;;;;;;;;;5012318;28;20085;-82
2022/03/27 04:10:49;;;;;;;78.75;29.25;;;;;;;;;;5024336;28;20154;-81
2022/03/27 04:13:16;;;;;;;76.70;28.67;;;;;;;;;;5009911;28;20518;-80
2022/03/27 04:15:44;;;;;;;72.30;27.42;;;;;;;;;;5024918;28;20038;-81
2022/03/27 04:18:22;;;;;;;69.20;25.60;;;;;;;;;;5007321;28;20124;-81
2022/03/27 04:23:52;;;;;;;64.75;25.15;;;;;;;;;;5048587;28;20462;-82
2022/03/27 04:26:20;;;;;;;54.42;23.10;;;;;;;;;;5051486;28;20554;-82
2022/03/27 04:28:47;;;;;;;56.53;23.55;;;;;;;;;;5048259;28;20154;-82
2022/03/27 04:31:14;;;;;;;50.00;21.98;;;;;;;;;;5047676;28;20072;-82
2022/03/27 04:33:42;;;;;;;60.63;21.95;;;;;;;;;;5050004;28;20131;-82
2022/03/27 04:36:09;;;;;;;53.28;22.92;;;;;;;;;;5043332;28;20069;-82
2022/03/27 04:38:37;;;;;;;59.58;24.20;;;;;;;;;;5050528;28;20130;-80
2022/03/27 04:41:04;;;;;;;55.55;22.90;;;;;;;;;;5042047;28;20136;-79
2022/03/27 04:43:32;;;;;;;49.75;19.92;;;;;;;;;;5045376;28;20135;-81
2022/03/27 04:46:00;;;;;;;53.30;22.30;;;;;;;;;;5049850;28;20076;-81
2022/03/27 04:48:27;;;;;;;54.13;23.33;;;;;;;;;;5050457;28;20397;-81
2022/03/27 04:50:55;;;;;;;58.03;22.83;;;;;;;;;;5047528;28;20133;-81
2022/03/27 04:53:22;;;;;;;54.88;21.45;;;;;;;;;;5048390;28;20068;-81
2022/03/27 04:55:49;;;;;;;49.08;18.75;;;;;;;;;;5048393;28;20059;-81
2022/03/27 04:58:17;;;;;;;39.13;17.70;;;;;;;;;;5050031;28;20132;-82
2022/03/27 05:00:45;;;;;;;36.53;16.98;;;;;;;;;;5047175;28;20083;-82
2022/03/27 05:03:13;;;;;;;95.97;18.48;;;;;;;;;;5046131;28;20584;-79
2022/03/27 05:05:40;;;;;;;105.40;17.95;;;;;;;;;;5048462;28;20059;-80
2022/03/27 05:08:08;;;;;;;183.23;19.13;;;;;;;;;;5044148;28;21141;-79
2022/03/27 05:10:35;;;;;;;88.25;18.60;;;;;;;;;;5048348;28;20099;-80
2022/03/27 05:13:03;;;;;;;54.10;19.05;;;;;;;;;;5047905;28;20799;-80
2022/03/27 05:15:30;;;;;;;105.32;19.65;;;;;;;;;;5047785;28;20049;-80
2022/03/27 05:17:58;;;;;;;139.30;20.88;;;;;;;;;;5048374;28;20128;-82
2022/03/27 05:20:27;;;;;;;95.80;19.95;;;;;;;;;;5050737;28;20053;-82
2022/03/27 05:22:55;;;;;;;61.83;19.73;;;;;;;;;;5048577;28;20048;-82
2022/03/27 05:25:22;;;;;;;119.60;21.98;;;;;;;;;;5047121;28;20159;-82
2022/03/27 05:27:51;;;;;;;51.00;21.10;;;;;;;;;;5048707;28;20053;-82
2022/03/27 05:30:19;;;;;;;56.75;20.58;;;;;;;;;;5048522;28;20061;-82
2022/03/27 05:32:46;;;;;;;52.58;20.30;;;;;;;;;;5045713;28;20049;-81
2022/03/27 05:35:14;;;;;;;53.55;21.38;;;;;;;;;;5046978;28;20060;-82
2022/03/27 05:37:42;;;;;;;50.45;20.33;;;;;;;;;;5049225;28;20048;-82
2022/03/27 05:40:11;;;;;;;48.00;20.52;;;;;;;;;;5047607;28;20830;-82
2022/03/27 05:42:39;;;;;;;48.55;20.58;;;;;;;;;;5049729;28;20984;-82
2022/03/27 05:45:07;;;;;;;44.08;20.40;;;;;;;;;;5050152;28;20044;-82
2022/03/27 05:47:34;;;;;;;52.88;21.70;;;;;;;;;;5049500;28;20092;-82
2022/03/27 05:53:49;;;;;;;45.92;18.90;;;;;;;;;;5022597;22;20954;-82
2022/03/27 05:56:17;;;;;;;42.63;18.55;;;;;;;;;;5009143;28;20081;-82
2022/03/27 05:58:44;;;;;;;37.53;16.88;;;;;;;;;;5010394;28;20069;-82
2022/03/27 06:01:12;;;;;;;45.65;16.92;;;;;;;;;;5008178;28;20455;-83
2022/03/27 06:03:45;;;;;;;43.42;18.42;;;;;;;;;;5013726;28;20077;-83
2022/03/27 06:06:14;;;;;;;41.17;16.73;;;;;;;;;;5015067;28;20100;-82
2022/03/27 06:08:41;;;;;;;43.35;16.98;;;;;;;;;;5012581;28;20050;-82
2022/03/27 06:11:08;;;;;;;39.05;16.67;;;;;;;;;;5013742;28;20147;-83
2022/03/27 06:13:35;;;;;;;41.90;17.60;;;;;;;;;;5012825;28;20103;-82
2022/03/27 06:16:03;;;;;;;36.03;16.88;;;;;;;;;;5009743;28;20050;-82
2022/03/27 06:18:30;;;;;;;30.30;15.02;;;;;;;;;;5011708;28;20089;-82
2022/03/27 06:20:58;;;;;;;33.40;15.55;;;;;;;;;;5016841;28;20045;-82
2022/03/27 06:23:25;;;;;;;32.22;16.27;;;;;;;;;;5012954;28;20176;-82
2022/03/27 06:25:52;;;;;;;34.50;15.70;;;;;;;;;;5013860;28;20746;-82
2022/03/27 06:28:19;;;;;;;37.00;16.58;;;;;;;;;;5016259;28;20096;-82
2022/03/27 06:30:47;;;;;;;35.03;17.25;;;;;;;;;;5006743;28;20798;-81
2022/03/27 06:33:15;;;;;;;38.72;17.83;;;;;;;;;;5002807;28;20109;-83
2022/03/27 06:35:42;;;;;;;39.22;18.30;;;;;;;;;;5005786;28;20144;-84
2022/03/27 06:40:43;;;;;;;30.27;15.77;;;;;;;;;;5024224;28;20053;-82
2022/03/27 06:43:10;;;;;;;29.38;16.30;;;;;;;;;;5029811;28;20498;-82
2022/03/27 06:45:38;;;;;;;31.65;15.35;;;;;;;;;;5038523;28;20049;-83
2022/03/27 06:48:06;;;;;;;32.63;15.93;;;;;;;;;;5029187;28;20069;-83
2022/03/27 06:50:33;;;;;;;33.10;15.85;;;;;;;;;;5026599;28;20105;-82
2022/03/27 06:53:00;;;;;;;25.75;15.18;;;;;;;;;;5029611;28;20046;-83
2022/03/27 06:55:28;;;;;;;26.50;14.43;;;;;;;;;;5027989;28;20049;-83
2022/03/27 06:57:55;;;;;;;24.05;14.55;;;;;;;;;;5027987;28;20596;-83
2022/03/27 07:03:12;;;;;;;26.65;14.05;;;;;;;;;;5026734;28;20045;-81
2022/03/27 07:05:41;;;;;;;20.58;12.60;;;;;;;;;;5028624;28;20057;-83
2022/03/27 07:08:09;;;;;;;21.83;12.95;;;;;;;;;;5029412;28;20052;-84
2022/03/27 07:10:37;;;;;;;22.70;14.52;;;;;;;;;;5044722;28;20045;-83
2022/03/27 07:13:08;;;;;;;26.58;13.13;;;;;;;;;;5025394;28;20127;-80
2022/03/27 07:15:37;;;;;;;20.02;13.30;;;;;;;;;;5032552;28;20049;-85
2022/03/27 07:18:08;;;;;;;17.13;12.02;;;;;;;;;;5048439;28;20079;-86
2022/03/27 07:20:46;;;;;;;18.55;11.73;;;;;;;;;;5030815;28;20552;-89
2022/03/27 07:23:15;;;;;;;17.83;11.63;;;;;;;;;;5033170;28;20087;-86
2022/03/27 07:25:44;;;;;;;20.58;11.75;;;;;;;;;;5044867;28;20049;-83
2022/03/27 07:28:12;;;;;;;18.60;11.35;;;;;;;;;;5029304;28;20080;-79
2022/03/27 07:30:41;;;;;;;16.00;10.85;;;;;;;;;;5025611;28;20038;-79
2022/03/27 07:33:08;;;;;;;20.30;12.07;;;;;;;;;;5044607;28;20046;-79
2022/03/27 07:35:35;;;;;;;21.52;12.55;;;;;;;;;;5027092;28;20084;-81
2022/03/27 07:38:03;;;;;;;17.15;11.77;;;;;;;;;;5026562;28;20041;-81
2022/03/27 07:40:31;;;;;;;16.92;11.63;;;;;;;;;;5022405;28;20045;-80
2022/03/27 07:45:55;;;;;;;18.42;11.25;;;;;;;;;;5029821;28;20518;-83
2022/03/27 07:48:22;;;;;;;18.33;10.13;;;;;;;;;;5042679;28;20053;-82
2022/03/27 07:50:54;;;;;;;15.73;10.60;;;;;;;;;;5023664;28;20079;-79
2022/03/27 07:53:22;;;;;;;14.60;9.60;;;;;;;;;;5024321;28;20127;-79
2022/03/27 07:55:50;;;;;;;15.13;9.18;;;;;;;;;;5026703;28;20049;-80
2022/03/27 07:58:17;;;;;;;11.48;8.20;;;;;;;;;;5034355;28;20092;-84
2022/03/27 08:00:44;;;;;;;14.68;8.65;;;;;;;;;;5044973;28;20065;-82
2022/03/27 08:03:12;;;;;;;14.23;9.25;;;;;;;;;;5029049;28;20442;-81
2022/03/27 08:08:11;;;;;;;12.20;8.65;;;;;;;;;;5004528;28;20120;-79
2022/03/27 08:10:38;;;;;;;12.40;7.65;;;;;;;;;;5009846;28;20046;-85
2022/03/27 08:13:06;;;;;;;13.02;7.95;;;;;;;;;;5005527;28;20053;-86
2022/03/27 08:15:33;;;;;;;11.45;7.00;;;;;;;;;;5010552;28;20046;-86
2022/03/27 08:18:00;;;;;;;14.15;7.22;;;;;;;;;;5011990;28;20054;-85
2022/03/27 08:20:29;;;;;;;10.68;8.30;;;;;;;;;;5010858;28;20622;-86
2022/03/27 08:22:56;;;;;;;9.13;6.63;;;;;;;;;;5008442;28;21640;-86
2022/03/27 08:28:11;;;;;;;11.00;6.95;;;;;;;;;;5009891;28;20549;-86
2022/03/27 08:30:39;;;;;;;10.05;7.38;;;;;;;;;;5003387;28;20501;-86
2022/03/27 08:33:07;;;;;;;10.35;6.85;;;;;;;;;;5005817;28;20060;-86
2022/03/27 08:35:34;;;;;;;14.13;7.18;;;;;;;;;;5007993;28;20056;-86
2022/03/27 08:38:01;;;;;;;14.35;7.50;;;;;;;;;;5011030;28;20101;-87
2022/03/27 08:40:28;;;;;;;8.70;6.13;;;;;;;;;;5009426;28;20112;-86
2022/03/27 08:42:56;;;;;;;8.65;5.97;;;;;;;;;;5026257;28;20152;-86
2022/03/27 08:45:23;;;;;;;73.65;19.15;;;;;;;;;;4997651;28;20136;-87
2022/03/27 08:47:51;;;;;;;47.55;11.68;;;;;;;;;;4991396;28;20084;-87
2022/03/27 08:50:24;;;;;;;30.40;10.73;;;;;;;;;;4991538;28;20061;-88
2022/03/27 08:52:56;;;;;;;26.30;7.78;;;;;;;;;;4995276;28;20598;-87
2022/03/27 08:55:43;;;;;;;11.43;6.07;;;;;;;;;;5004449;28;20121;-87
2022/03/27 08:58:11;;;;;;;7.90;4.65;;;;;;;;;;5011627;28;20121;-87
2022/03/27 09:00:39;;;;;;;10.15;6.30;;;;;;;;;;5007336;28;20081;-81
2022/03/27 09:03:07;;;;;;;11.65;5.93;;;;;;;;;;5017878;22;20049;-88
2022/03/27 09:05:38;;;;;;;6.97;5.70;;;;;;;;;;5041123;28;20607;-88
2022/03/27 09:08:07;;;;;;;11.48;7.13;;;;;;;;;;5046493;28;20065;-88
2022/03/27 09:10:35;;;;;;;9.48;6.25;;;;;;;;;;5045440;28;20101;-88
2022/03/27 09:13:03;;;;;;;12.35;6.40;;;;;;;;;;5044398;28;20484;-88
2022/03/27 09:15:30;;;;;;;10.20;6.50;;;;;;;;;;5047753;28;20089;-87
2022/03/27 09:18:01;;;;;;;15.88;6.68;;;;;;;;;;5047634;28;20525;-88
2022/03/27 09:20:31;;;;;;;12.07;6.70;;;;;;;;;;5045269;28;20102;-88
2022/03/27 09:23:07;;;;;;;12.25;6.13;;;;;;;;;;5044144;28;20095;-88
2022/03/27 09:25:47;;;;;;;9.32;5.07;;;;;;;;;;5045767;28;20099;-92
2022/03/27 09:28:33;;;;;;;7.70;5.57;;;;;;;;;;5048015;28;20136;-92
2022/03/27 09:31:20;;;;;;;8.48;4.70;;;;;;;;;;5045779;28;20517;-93
2022/03/27 09:33:49;;;;;;;7.78;5.63;;;;;;;;;;5054179;28;20049;-94
2022/03/27 09:36:16;;;;;;;6.57;3.85;;;;;;;;;;5055096;28;20041;-94
2022/03/27 09:39:02;;;;;;;10.05;5.22;;;;;;;;;;5048456;28;20091;-92
2022/03/27 09:41:31;;;;;;;14.15;5.00;;;;;;;;;;5050851;28;20037;-91
2022/03/27 09:44:00;;;;;;;8.15;3.95;;;;;;;;;;5031023;28;20149;-91
2022/03/27 09:46:28;;;;;;;6.35;3.55;;;;;;;;;;5031517;28;20076;-93
2022/03/27 09:48:56;;;;;;;7.53;3.72;;;;;;;;;;5029068;28;20057;-91
2022/03/27 09:51:23;;;;;;;11.07;4.35;;;;;;;;;;5031029;28;20073;-91
2022/03/27 09:53:58;;;;;;;5.55;3.08;;;;;;;;;;5035032;28;20083;-91
2022/03/27 09:56:31;;;;;;;119.30;17.65;;;;;;;;;;5040225;28;20079;-90
2022/03/27 09:58:58;;;;;;;60.00;9.43;;;;;;;;;;5042192;28;20478;-90
2022/03/27 10:01:26;;;;;;;24.52;6.20;;;;;;;;;;5039422;28;20073;-92
2022/03/27 10:04:04;;;;;;;22.25;5.78;;;;;;;;;;5029559;28;20049;-92
2022/03/27 10:06:32;;;;;;;18.08;5.47;;;;;;;;;;5029585;28;20087;-92
2022/03/27 10:09:00;;;;;;;10.77;3.72;;;;;;;;;;5028677;28;20128;-91
2022/03/27 10:11:28;;;;;;;5.47;3.00;;;;;;;;;;5026036;28;20146;-89
2022/03/27 10:13:55;;;;;;;7.25;3.85;;;;;;;;;;5029542;28;20091;-92
2022/03/27 10:16:34;;;;;;;4.82;2.75;;;;;;;;;;5028456;28;20096;-92
2022/03/27 10:19:20;;;;;;;5.43;3.05;;;;;;;;;;5029426;28;20056;-92
2022/03/27 10:21:50;;;;;;;10.27;4.20;;;;;;;;;;5029280;28;20052;-90
2022/03/27 10:24:17;;;;;;;10.43;3.28;;;;;;;;;;5031565;28;20136;-93
2022/03/27 10:26:45;;;;;;;6.72;3.50;;;;;;;;;;5032461;28;20068;-92
2022/03/27 10:29:14;;;;;;;5.47;3.65;;;;;;;;;;5030014;28;20450;-93
2022/03/27 10:31:41;;;;;;;9.75;4.15;;;;;;;;;;5033867;28;20057;-93
2022/03/27 10:34:11;;;;;;;7.43;3.67;;;;;;;;;;5032237;28;20131;-93
2022/03/27 10:36:55;;;;;;;4.93;3.70;;;;;;;;;;5031581;28;20080;-93
2022/03/27 10:39:28;;;;;;;6.80;3.50;;;;;;;;;;5031822;28;20057;-93
2022/03/27 10:42:18;;;;;;;7.68;3.80;;;;;;;;;;5032803;28;20084;-93
2022/03/27 10:44:53;;;;;;;7.55;3.63;;;;;;;;;;5030836;28;20479;-92
2022/03/27 10:47:21;;;;;;;12.43;3.75;;;;;;;;;;5032262;28;20095;-94
2022/03/27 10:50:08;;;;;;;9.10;3.30;;;;;;;;;;5051840;28;20044;-94
2022/03/27 10:52:37;;;;;;;7.38;3.20;;;;;;;;;;5053689;28;20075;-94
2022/03/27 10:55:09;;;;;;;7.45;3.38;;;;;;;;;;5052046;28;20077;-93
2022/03/27 10:57:37;;;;;;;8.15;3.60;;;;;;;;;;5053502;28;20080;-95
2022/03/27 11:00:06;;;;;;;8.48;3.70;;;;;;;;;;5052930;28;20394;-94
2022/03/27 11:02:50;;;;;;;10.30;3.88;;;;;;;;;;5052009;28;20049;-95
2022/03/27 11:05:35;;;;;;;6.80;3.40;;;;;;;;;;5051441;28;20052;-93
2022/03/27 11:08:17;;;;;;;6.47;3.83;;;;;;;;;;5049297;28;20041;-92
2022/03/27 11:10:59;;;;;;;12.65;4.03;;;;;;;;;;5053455;28;20107;-93
2022/03/27 11:13:32;;;;;;;10.27;4.80;;;;;;;;;;5056556;28;20060;-92
2022/03/27 11:16:05;;;;;;;9.98;4.20;;;;;;;;;;5052757;28;20136;-91
2022/03/27 11:18:37;;;;;;;10.10;4.45;;;;;;;;;;5048981;28;20095;-92
2022/03/27 11:21:04;;;;;;;9.32;4.90;;;;;;;;;;5047535;28;20476;-91
2022/03/27 11:23:33;;;;;;;14.43;4.53;;;;;;;;;;5048276;28;20076;-93
2022/03/27 11:26:02;;;;;;;8.98;4.70;;;;;;;;;;5049122;28;20077;-92
2022/03/27 11:28:47;;;;;;;7.78;4.57;;;;;;;;;;5050719;28;20057;-91
2022/03/27 11:31:14;;;;;;;;;;;;;;;;;;5052849;28;20465;-92
2022/03/27 11:33:41;;;;;;;9.73;5.28;;;;;;;;;;5057026;28;20382;-92
2022/03/27 11:36:09;;;;;;;13.02;5.10;;;;;;;;;;5056973;28;20080;-91
2022/03/27 11:38:54;;;;;;;11.10;5.50;;;;;;;;;;5055761;28;20126;-92
2022/03/27 11:41:22;;;;;;;7.68;4.68;;;;;;;;;;5055494;28;20107;-91
2022/03/27 11:43:52;;;;;;;10.63;5.57;;;;;;;;;;5057093;28;20084;-92
2022/03/27 11:46:24;;;;;;;10.45;5.65;;;;;;;;;;5055663;28;20045;-92
2022/03/27 11:49:01;;;;;;;11.55;6.15;;;;;;;;;;5056723;28;20102;-92
2022/03/27 11:51:28;;;;;;;11.32;5.22;;;;;;;;;;5054561;28;20041;-92
2022/03/27 11:53:58;;;;;;;13.38;5.38;;;;;;;;;;5055089;28;20107;-90
2022/03/27 11:56:25;;;;;;;12.05;5.45;;;;;;;;;;5054384;28;20049;-91
2022/03/27 11:59:05;;;;;;;12.80;5.50;;;;;;;;;;5053830;28;20076;-91
2022/03/27 12:01:32;;;;;;;10.27;5.55;;;;;;;;;;5046048;28;20080;-91
2022/03/27 12:04:00;;;;;;;6.90;5.10;;;;;;;;;;5039811;28;20468;-90
2022/03/27 12:06:28;;;;;;;10.07;4.53;;;;;;;;;;5041141;28;20092;-91
2022/03/27 12:08:58;;;;;;;13.63;4.70;;;;;;;;;;5051169;28;20107;-91
2022/03/27 12:11:26;;;;;;;7.63;4.30;;;;;;;;;;5049464;28;20057;-93
2022/03/27 12:13:56;;;;;;;10.90;4.55;;;;;;;;;;5051618;28;20051;-92
2022/03/27 12:16:25;;;;;;;8.15;4.00;;;;;;;;;;5050631;28;20383;-92
2022/03/27 12:18:53;;;;;;;10.77;4.32;;;;;;;;;;5050235;28;20053;-92
2022/03/27 12:21:22;;;;;;;9.70;4.40;;;;;;;;;;5051674;28;20274;-92
2022/03/27 12:23:49;;;;;;;8.85;4.30;;;;;;;;;;5050278;28;20041;-92
2022/03/27 12:32:01;;;;;;;6.93;3.75;;;;;;;;;;5050361;28;20076;-92
2022/03/27 12:34:30;;;;;;;10.73;5.22;;;;;;;;;;5064940;28;20426;-92
2022/03/27 12:37:15;;;;;;;9.07;4.15;;;;;;;;;;5070106;28;20100;-92
2022/03/27 12:39:49;;;;;;;6.47;3.88;;;;;;;;;;5070206;28;20460;-92
2022/03/27 12:42:35;;;;;;;12.55;4.30;;;;;;;;;;5067587;28;20535;-92
2022/03/27 12:45:22;;;;;;;11.77;4.75;;;;;;;;;;5054853;28;20045;-91
2022/03/27 12:47:58;;;;;;;7.75;4.13;;;;;;;;;;5052054;28;20099;-93
2022/03/27 12:50:31;;;;;;;14.23;4.63;;;;;;;;;;5049392;28;20041;-93
2022/03/27 12:52:59;;;;;;;11.43;3.67;;;;;;;;;;5050545;28;20053;-92
2022/03/27 12:55:39;;;;;;;6.88;3.60;;;;;;;;;;5049750;28;20052;-93
2022/03/27 12:58:07;;;;;;;14.23;4.30;;;;;;;;;;5049215;28;20052;-92
2022/03/27 13:00:40;;;;;;;11.18;3.70;;;;;;;;;;5051785;28;20132;-92
2022/03/27 13:03:19;;;;;;;7.80;3.50;;;;;;;;;;5050364;28;20049;-92
2022/03/27 13:06:01;;;;;;;13.82;3.92;;;;;;;;;;5051331;28;20110;-92
2022/03/27 13:08:29;;;;;;;8.40;4.28;;;;;;;;;;5048218;28;20537;-92
2022/03/27 13:10:57;;;;;;;10.10;3.47;;;;;;;;;;5051396;28;20127;-91
2022/03/27 13:13:32;;;;;;;6.78;3.30;;;;;;;;;;5050401;28;20144;-92
2022/03/27 13:15:59;;;;;;;10.70;3.37;;;;;;;;;;5048651;28;20092;-92
2022/03/27 13:18:30;;;;;;;9.57;3.60;;;;;;;;;;5049331;28;20417;-91
2022/03/27 13:20:58;;;;;;;10.13;4.70;;;;;;;;;;5039527;28;20144;-91
2022/03/27 13:23:25;;;;;;;11.65;3.70;;;;;;;;;;5035927;28;20121;-91
2022/03/27 13:25:53;;;;;;;9.55;4.30;;;;;;;;;;5042452;28;20084;-92
2022/03/27 13:28:20;;;;;;;14.75;4.00;;;;;;;;;;5043302;28;20127;-92
2022/03/27 13:30:47;;;;;;;9.60;3.65;;;;;;;;;;5032694;28;20046;-93
2022/03/27 13:33:14;;;;;;;11.82;4.15;;;;;;;;;;5045648;28;20076;-92
2022/03/27 13:35:46;;;;;;;10.82;4.05;;;;;;;;;;5069817;28;20090;-94
2022/03/27 13:38:13;;;;;;;9.23;3.85;;;;;;;;;;5070682;28;20048;-92
2022/03/27 13:43:27;;;;;;;8.82;4.00;;;;;;;;;;5070779;28;20079;-90
2022/03/27 13:45:54;;;;;;;12.77;4.28;;;;;;;;;;5070181;28;20136;-93
2022/03/27 13:48:22;;;;;;;11.65;4.03;;;;;;;;;;5068577;28;20443;-91
2022/03/27 13:50:49;;;;;;;21.42;3.70;;;;;;;;;;5069445;28;20507;-89
2022/03/27 13:53:16;;;;;;;13.35;4.60;;;;;;;;;;5072878;28;20076;-92
2022/03/27 13:55:43;;;;;;;7.15;3.20;;;;;;;;;;5070335;28;20433;-91
2022/03/27 13:58:10;;;;;;;13.20;3.35;;;;;;;;;;5072573;28;20075;-91
2022/03/27 14:00:38;;;;;;;15.00;4.80;;;;;;;;;;5072202;28;20127;-91
2022/03/27 14:03:06;;;;;;;11.98;4.07;;;;;;;;;;5072267;28;20060;-91
2022/03/27 14:05:34;;;;;;;13.20;4.43;;;;;;;;;;5074055;28;20060;-91
2022/03/27 14:08:02;;;;;;;13.20;4.93;;;;;;;;;;5073118;28;20071;-93
2022/03/27 14:10:29;;;;;;;12.50;4.22;;;;;;;;;;5071214;28;20045;-94
2022/03/27 14:12:56;;;;;;;16.55;5.30;;;;;;;;;;5070513;28;20139;-93
2022/03/27 14:15:24;;;;;;;12.18;4.85;;;;;;;;;;5069845;28;20527;-94
2022/03/27 14:17:51;;;;;;;15.02;5.05;;;;;;;;;;5069900;28;20060;-94
2022/03/27 14:20:19;;;;;;;15.55;4.90;;;;;;;;;;5070433;28;20203;-94
2022/03/27 14:22:46;;;;;;;12.48;5.07;;;;;;;;;;5069585;28;20078;-91
2022/03/27 14:25:14;;;;;;;13.07;5.32;;;;;;;;;;5071199;28;20079;-92
2022/03/27 14:27:42;;;;;;;12.88;5.03;;;;;;;;;;5070692;28;20175;-93
2022/03/27 14:30:11;;;;;;;13.75;4.93;;;;;;;;;;5072311;28;20135;-92
2022/03/27 14:32:39;;;;;;;11.30;4.88;;;;;;;;;;5070404;28;20056;-91
2022/03/27 14:35:06;;;;;;;14.23;5.38;;;;;;;;;;5051692;28;20128;-93
2022/03/27 14:37:36;;;;;;;12.15;4.63;;;;;;;;;;5048526;28;20140;-94
2022/03/27 14:40:07;;;;;;;10.82;5.50;;;;;;;;;;5049648;28;20494;-92
2022/03/27 14:42:35;;;;;;;15.13;5.28;;;;;;;;;;5051234;28;20540;-92
2022/03/27 14:45:03;;;;;;;11.77;5.00;;;;;;;;;;5051359;28;20087;-92
2022/03/27 14:47:34;;;;;;;15.10;4.50;;;;;;;;;;5050828;28;20067;-91
2022/03/27 14:50:06;;;;;;;12.82;5.20;;;;;;;;;;5050209;28;20130;-92
2022/03/27 14:52:33;;;;;;;13.32;5.32;;;;;;;;;;5048602;28;20088;-90
2022/03/27 14:57:47;;;;;;;11.68;5.55;;;;;;;;;;5049820;28;20099;-91
2022/03/27 15:00:14;;;;;;;18.52;5.43;;;;;;;;;;5048848;28;20053;-92
2022/03/27 15:02:41;;;;;;;16.67;5.88;;;;;;;;;;5050075;28;20079;-91
2022/03/27 15:05:09;;;;;;;19.38;5.93;;;;;;;;;;5049711;28;20045;-93
2022/03/27 15:07:36;;;;;;;11.70;5.88;;;;;;;;;;5047457;28;20072;-92
2022/03/27 15:10:05;;;;;;;15.70;5.68;;;;;;;;;;5047811;28;20610;-91
2022/03/27 15:12:32;;;;;;;19.05;6.35;;;;;;;;;;5048626;28;20091;-92
2022/03/27 15:14:59;;;;;;;17.98;5.85;;;;;;;;;;5049321;28;20095;-91
2022/03/27 15:17:26;;;;;;;15.48;5.68;;;;;;;;;;5048930;28;20522;-91